Lake Zurich, Illinois
Current Conditions -  °F | °C
As of 8:52 AM on Thursday 23 Oct 2014 (Local Time) from KPWK Reporting Station
Haze Haze  
Wind Chill:   Ceiling: Unl
Heat Index:   Visibility: 6mi
Dew Point:   Wind: 3mph
Humidity: 82%   Direction: 190°S
Pressure: 30.24"   Gusts: NA
Location:  42.2°N, 88.09°W
Report Text: KPWK 231352Z 19003KT 6SM HZ CLR 07/04 A3024 RMK AO2 SLP243 T00670039
Loading
Personal Weather Stations






























Interactive Weather Map
Tropical Storm Tracking
New forecast layout! Learn more

10-Day Weather Forecast

Advertisements
Track Severe Weather on mobile